Del Caribe Santiago Marino International Airport


Codes: SVMG/PMV
Name: Del Caribe Santiago Marino International Airport
City: Isla Margarita
Country: Venezuela
Elevation: 74 ft.
Wikipedia:

Photos at Del Caribe Santiago Marino International Airport


   Photos courtesy of SpottingLog. You can add your own sightings and photos by signing up for a free trial today.



No photos found.

Weather at Del Caribe Santiago Marino International Airport


Time (UTC)DescriptionTempratureWindCloud coverageVisibilityPressureHumidity
18-Apr-2024 00:00Broken Clouds27°C13 mph, E80%10000m1010hPa86%
18-Apr-2024 03:00Overcast Clouds27°C13 mph, NE87%10000m1010hPa87%
18-Apr-2024 06:00Broken Clouds26°C11 mph, E79%10000m1009hPa87%
18-Apr-2024 09:00Broken Clouds26°C13 mph, E66%10000m1009hPa86%
18-Apr-2024 12:00Broken Clouds28°C16 mph, E72%10000m1011hPa78%
18-Apr-2024 15:00Overcast Clouds30°C11 mph, E94%10000m1011hPa68%
18-Apr-2024 18:00Broken Clouds31°C7 mph, E78%10000m1009hPa65%
18-Apr-2024 21:00Light Rain30°C13 mph, NE100%10000m1009hPa68%
19-Apr-2024 00:00Light Rain26°C13 mph, NE96%10000m1010hPa90%
19-Apr-2024 03:00Broken Clouds27°C13 mph, NE66%10000m1011hPa90%
19-Apr-2024 06:00Broken Clouds26°C13 mph, E83%10000m1009hPa90%
19-Apr-2024 09:00Overcast Clouds26°C11 mph, E92%10000m1010hPa92%
19-Apr-2024 12:00Overcast Clouds28°C11 mph, E90%10000m1011hPa80%
19-Apr-2024 15:00Overcast Clouds30°C11 mph, NE100%10000m1012hPa69%
19-Apr-2024 18:00Light Rain31°C11 mph, E77%10000m1009hPa65%
19-Apr-2024 21:00Light Rain29°C13 mph, NE99%10000m1009hPa72%
20-Apr-2024 00:00Light Rain27°C13 mph, NE100%10000m1010hPa87%
20-Apr-2024 03:00Scattered Clouds27°C11 mph, E32%10000m1011hPa88%
20-Apr-2024 06:00Scattered Clouds26°C11 mph, NE38%10000m1010hPa93%
20-Apr-2024 09:00Light Rain26°C11 mph, E91%10000m1011hPa88%
20-Apr-2024 12:00Overcast Clouds28°C13 mph, E91%10000m1012hPa76%
20-Apr-2024 15:00Overcast Clouds30°C13 mph, NE90%10000m1012hPa67%
20-Apr-2024 18:00Light Rain31°C18 mph, NE95%10000m1010hPa63%
20-Apr-2024 21:00Light Rain29°C18 mph, NE97%10000m1009hPa72%
21-Apr-2024 00:00Light Rain27°C4 mph, SE100%10000m1012hPa81%
21-Apr-2024 03:00Overcast Clouds26°C2 mph, E100%10000m1012hPa87%
21-Apr-2024 06:00Overcast Clouds26°C2 mph, E100%10000m1011hPa86%
21-Apr-2024 09:00Overcast Clouds25°C4 mph, E100%10000m1012hPa87%
21-Apr-2024 12:00Overcast Clouds28°C7 mph, SE100%10000m1013hPa74%
21-Apr-2024 15:00Overcast Clouds29°C9 mph, E100%10000m1014hPa67%
21-Apr-2024 18:00Overcast Clouds29°C9 mph, NE100%10000m1011hPa64%
21-Apr-2024 21:00Overcast Clouds28°C11 mph, NE100%10000m1010hPa71%
22-Apr-2024 00:00Overcast Clouds27°C16 mph, NE98%10000m1012hPa81%
22-Apr-2024 03:00Broken Clouds26°C16 mph, E55%10000m1013hPa82%
22-Apr-2024 06:00Broken Clouds26°C16 mph, E74%10000m1011hPa85%
22-Apr-2024 09:00Broken Clouds26°C13 mph, E64%10000m1011hPa85%
22-Apr-2024 12:00Scattered Clouds27°C13 mph, E48%10000m1013hPa76%
22-Apr-2024 15:00Broken Clouds29°C20 mph, E75%10000m1013hPa68%
22-Apr-2024 18:00Broken Clouds30°C20 mph, NE51%10000m1011hPa61%
22-Apr-2024 21:00Few Clouds28°C18 mph, NE13%10000m1010hPa67%